Time;durP1;ratioP1;P1;durP2;ratioP2;P2;SDS_P1;SDS_P2;PMS_P1;PMS_P2;Temp;Humidity;BMP_temperature;BMP_pressure;BME280_temperature;BME280_humidity;BME280_pressure;Samples;Min_cycle;Max_cycle;Signal;HPM_P1;HPM_P2
2021/10/03 00:00:57;;;;;;;13.85;9.02;;;;;;;;;;10321191;28;20047;-52
2021/10/03 00:05:56;;;;;;;10.63;7.18;;;;;;;;;;10320747;28;20425;-53
2021/10/03 00:10:54;;;;;;;8.50;6.05;;;;;;;;;;10320729;28;20056;-52
2021/10/03 00:15:54;;;;;;;10.77;6.53;;;;;;;;;;10320745;28;20048;-55
2021/10/03 00:20:54;;;;;;;8.13;5.70;;;;;;;;;;10320697;28;20412;-52
2021/10/03 00:25:52;;;;;;;8.20;5.72;;;;;;;;;;10320365;28;20068;-54
2021/10/03 00:30:51;;;;;;;16.65;5.50;;;;;;;;;;10319524;28;20060;-52
2021/10/03 00:35:49;;;;;;;10.48;5.72;;;;;;;;;;10320064;28;20052;-52
2021/10/03 00:40:49;;;;;;;11.90;5.93;;;;;;;;;;10319993;28;20044;-53
2021/10/03 00:45:47;;;;;;;7.90;5.85;;;;;;;;;;10319823;28;20067;-53
2021/10/03 00:50:46;;;;;;;11.48;4.90;;;;;;;;;;10319059;28;20300;-49
2021/10/03 00:55:45;;;;;;;9.48;5.55;;;;;;;;;;10319652;28;20044;-51
2021/10/03 01:00:44;;;;;;;8.70;4.70;;;;;;;;;;10319200;28;20063;-53
2021/10/03 01:05:43;;;;;;;7.97;4.88;;;;;;;;;;10318898;28;20076;-54
2021/10/03 01:10:41;;;;;;;9.95;4.50;;;;;;;;;;10318774;28;20036;-54
2021/10/03 01:15:40;;;;;;;8.05;4.55;;;;;;;;;;10318249;28;20036;-54
2021/10/03 01:20:41;;;;;;;9.00;4.95;;;;;;;;;;10318741;28;20083;-53
2021/10/03 01:25:41;;;;;;;16.40;8.85;;;;;;;;;;10318017;28;20075;-53
2021/10/03 01:30:41;;;;;;;19.10;13.85;;;;;;;;;;10317599;28;20040;-54
2021/10/03 01:35:39;;;;;;;19.75;12.73;;;;;;;;;;10316986;28;20496;-54
2021/10/03 01:40:38;;;;;;;16.92;12.40;;;;;;;;;;10316929;28;20044;-54
2021/10/03 01:45:38;;;;;;;17.15;11.82;;;;;;;;;;10317240;28;20087;-54
2021/10/03 01:50:38;;;;;;;15.98;12.02;;;;;;;;;;10317122;28;20044;-52
2021/10/03 01:55:37;;;;;;;17.20;13.73;;;;;;;;;;10316249;28;20417;-54
2021/10/03 02:00:35;;;;;;;17.65;11.65;;;;;;;;;;10316759;28;20051;-55
2021/10/03 02:05:36;;;;;;;12.85;9.15;;;;;;;;;;10316557;28;20445;-53
2021/10/03 02:10:34;;;;;;;13.77;7.57;;;;;;;;;;10316505;28;20044;-52
2021/10/03 02:15:33;;;;;;;6.18;5.25;;;;;;;;;;10316681;28;20048;-53
2021/10/03 02:20:31;;;;;;;9.73;5.35;;;;;;;;;;10316084;28;20040;-53
2021/10/03 02:25:31;;;;;;;8.32;6.07;;;;;;;;;;10315958;28;20076;-53
2021/10/03 02:30:30;;;;;;;8.35;6.47;;;;;;;;;;10315021;28;20524;-51
2021/10/03 02:35:28;;;;;;;13.13;7.00;;;;;;;;;;10316391;28;20485;-53
2021/10/03 02:40:27;;;;;;;10.98;6.85;;;;;;;;;;10316256;28;20158;-52
2021/10/03 02:45:26;;;;;;;11.98;6.25;;;;;;;;;;10316033;28;20079;-53
2021/10/03 02:50:25;;;;;;;8.77;6.55;;;;;;;;;;10314817;28;20410;-52
2021/10/03 02:55:23;;;;;;;9.38;7.18;;;;;;;;;;10321351;28;20072;-54
2021/10/03 03:00:22;;;;;;;10.10;6.28;;;;;;;;;;10323730;28;20072;-51
2021/10/03 03:05:21;;;;;;;11.07;8.63;;;;;;;;;;10323255;28;20072;-49
2021/10/03 03:10:20;;;;;;;12.10;8.15;;;;;;;;;;10323072;28;20049;-52
2021/10/03 03:15:18;;;;;;;13.35;8.48;;;;;;;;;;10323306;28;20082;-52
2021/10/03 03:20:16;;;;;;;12.43;9.20;;;;;;;;;;10323024;28;20048;-52
2021/10/03 03:25:16;;;;;;;44.33;26.05;;;;;;;;;;10322892;28;20083;-51
2021/10/03 03:30:14;;;;;;;63.80;36.65;;;;;;;;;;10322560;28;20055;-49
2021/10/03 03:35:13;;;;;;;23.15;17.50;;;;;;;;;;10322528;28;20531;-53
2021/10/03 03:40:12;;;;;;;20.27;16.60;;;;;;;;;;10321984;28;20044;-54
2021/10/03 03:45:12;;;;;;;64.55;40.45;;;;;;;;;;10321553;28;20118;-52
2021/10/03 03:50:13;;;;;;;37.42;25.58;;;;;;;;;;10321651;28;20091;-54
2021/10/03 03:55:11;;;;;;;29.35;20.20;;;;;;;;;;10321345;28;20076;-53
2021/10/03 04:00:10;;;;;;;18.90;13.38;;;;;;;;;;10320980;28;20182;-51
2021/10/03 04:05:10;;;;;;;21.90;15.23;;;;;;;;;;10320746;28;20083;-54
2021/10/03 04:10:09;;;;;;;19.88;12.50;;;;;;;;;;10320607;28;20468;-53
2021/10/03 04:15:09;;;;;;;26.38;15.18;;;;;;;;;;10320428;28;20079;-54
2021/10/03 04:20:08;;;;;;;13.05;9.60;;;;;;;;;;10320672;28;20040;-54
2021/10/03 04:25:08;;;;;;;12.43;9.73;;;;;;;;;;10320317;28;20474;-52
2021/10/03 04:30:07;;;;;;;15.13;9.95;;;;;;;;;;10320657;28;20497;-54
2021/10/03 04:35:06;;;;;;;22.00;14.48;;;;;;;;;;10321519;28;20052;-54
2021/10/03 04:40:05;;;;;;;20.00;11.18;;;;;;;;;;10320331;28;20450;-52
2021/10/03 04:45:10;;;;;;;12.57;8.88;;;;;;;;;;10319612;28;20080;-51
2021/10/03 04:50:09;;;;;;;10.98;7.85;;;;;;;;;;10319326;28;20055;-51
2021/10/03 04:55:08;;;;;;;19.20;9.57;;;;;;;;;;10319886;28;20040;-53
2021/10/03 05:00:07;;;;;;;9.52;7.32;;;;;;;;;;10318863;28;20052;-54
2021/10/03 05:05:07;;;;;;;9.40;7.05;;;;;;;;;;10318594;28;20500;-53
2021/10/03 05:10:06;;;;;;;10.40;6.53;;;;;;;;;;10318419;28;20052;-52
2021/10/03 05:15:05;;;;;;;11.35;6.97;;;;;;;;;;10316429;28;20484;-49
2021/10/03 05:20:04;;;;;;;14.52;9.65;;;;;;;;;;10317150;28;20481;-53
2021/10/03 05:25:04;;;;;;;17.10;9.82;;;;;;;;;;10317624;28;20088;-51
2021/10/03 05:30:03;;;;;;;21.10;11.45;;;;;;;;;;10317523;28;20047;-50
2021/10/03 05:35:02;;;;;;;22.95;15.20;;;;;;;;;;10317471;28;20087;-54
2021/10/03 05:40:00;;;;;;;21.05;14.23;;;;;;;;;;10317224;28;20520;-52
2021/10/03 05:45:00;;;;;;;25.23;17.08;;;;;;;;;;10316999;28;20067;-51
2021/10/03 05:49:58;;;;;;;32.35;20.20;;;;;;;;;;10316272;28;20457;-53
2021/10/03 05:54:56;;;;;;;28.45;19.77;;;;;;;;;;10317027;28;20524;-53
2021/10/03 05:59:54;;;;;;;34.05;21.90;;;;;;;;;;10317107;28;20048;-54
2021/10/03 06:04:54;;;;;;;46.75;32.45;;;;;;;;;;10317193;28;20088;-52
2021/10/03 06:09:52;;;;;;;39.85;27.70;;;;;;;;;;10317168;28;20032;-51
2021/10/03 06:14:51;;;;;;;39.25;25.05;;;;;;;;;;10316522;28;20390;-53
2021/10/03 06:19:50;;;;;;;31.60;22.63;;;;;;;;;;10315781;28;20048;-52
2021/10/03 06:24:50;;;;;;;28.65;20.92;;;;;;;;;;10312068;28;20493;-53
2021/10/03 06:29:48;;;;;;;40.13;24.80;;;;;;;;;;10314201;28;20052;-54
2021/10/03 06:34:46;;;;;;;26.85;20.52;;;;;;;;;;10316401;28;20099;-51
2021/10/03 06:39:44;;;;;;;45.75;29.60;;;;;;;;;;10311562;28;20083;-51
2021/10/03 06:44:44;;;;;;;35.38;25.52;;;;;;;;;;10311955;28;20072;-53
2021/10/03 06:49:43;;;;;;;24.65;18.75;;;;;;;;;;10312582;28;20505;-53
2021/10/03 06:54:41;;;;;;;25.15;17.90;;;;;;;;;;10316056;28;20049;-53
2021/10/03 06:59:39;;;;;;;24.45;16.35;;;;;;;;;;10315380;28;20040;-54
2021/10/03 07:04:40;;;;;;;31.00;16.73;;;;;;;;;;10315462;28;20087;-55
2021/10/03 07:09:38;;;;;;;25.25;15.00;;;;;;;;;;10315805;28;20420;-54
2021/10/03 07:14:36;;;;;;;26.58;13.52;;;;;;;;;;10315657;28;20048;-55
2021/10/03 07:19:35;;;;;;;30.58;12.63;;;;;;;;;;10315415;28;20512;-51
2021/10/03 07:24:34;;;;;;;17.95;11.10;;;;;;;;;;10314328;28;20079;-51
2021/10/03 07:29:33;;;;;;;22.50;11.15;;;;;;;;;;10315212;28;20142;-53
2021/10/03 07:34:31;;;;;;;12.38;6.70;;;;;;;;;;10315273;28;20055;-54
2021/10/03 07:39:29;;;;;;;11.60;5.95;;;;;;;;;;10316474;28;20128;-54
2021/10/03 07:44:29;;;;;;;7.72;6.13;;;;;;;;;;10321517;28;20098;-53
2021/10/03 07:49:27;;;;;;;19.70;14.95;;;;;;;;;;10322115;28;20041;-54
2021/10/03 07:54:26;;;;;;;14.73;8.15;;;;;;;;;;10321425;28;20047;-53
2021/10/03 07:59:24;;;;;;;15.20;5.72;;;;;;;;;;10321080;28;20080;-53
2021/10/03 08:04:24;;;;;;;21.15;6.50;;;;;;;;;;10320783;28;20493;-54
2021/10/03 08:09:22;;;;;;;46.78;29.95;;;;;;;;;;10320840;28;20413;-54
2021/10/03 08:14:21;;;;;;;20.65;12.50;;;;;;;;;;10320808;28;20083;-52
2021/10/03 08:19:19;;;;;;;20.77;14.68;;;;;;;;;;10320427;28;20040;-53
2021/10/03 08:24:19;;;;;;;15.30;6.80;;;;;;;;;;10320204;28;20083;-52
2021/10/03 08:29:19;;;;;;;17.90;8.40;;;;;;;;;;10320179;28;20041;-52
2021/10/03 08:34:17;;;;;;;12.18;8.52;;;;;;;;;;10320955;28;20075;-53
2021/10/03 08:39:15;;;;;;;9.68;4.55;;;;;;;;;;10319556;28;20049;-49
2021/10/03 08:44:15;;;;;;;9.90;5.50;;;;;;;;;;10319774;28;20080;-51
2021/10/03 08:49:17;;;;;;;7.22;3.67;;;;;;;;;;10319373;28;20050;-53
2021/10/03 08:54:17;;;;;;;10.50;6.15;;;;;;;;;;10318958;28;20417;-49
2021/10/03 08:59:17;;;;;;;14.65;9.35;;;;;;;;;;10319163;28;20063;-52
2021/10/03 09:04:25;;;;;;;18.73;11.90;;;;;;;;;;10318577;28;20442;-53
2021/10/03 09:09:43;;;;;;;17.20;12.85;;;;;;;;;;10318711;28;20052;-52
2021/10/03 09:14:43;;;;;;;13.20;6.85;;;;;;;;;;10315495;28;20480;-53
2021/10/03 09:20:04;;;;;;;14.85;7.78;;;;;;;;;;10293835;28;20075;-53
2021/10/03 09:25:02;;;;;;;6.38;5.43;;;;;;;;;;10279588;28;20497;-53
2021/10/03 09:30:07;;;;;;;12.73;6.57;;;;;;;;;;10277147;28;20053;-52
2021/10/03 09:35:05;;;;;;;;;;;;;;;;;;10293711;28;20114;-54
2021/10/03 09:40:05;;;;;;;13.23;5.18;;;;;;;;;;10310465;28;19971;-53
2021/10/03 09:45:04;;;;;;;8.80;5.53;;;;;;;;;;10315977;28;20072;-52
2021/10/03 09:50:05;;;;;;;9.75;5.30;;;;;;;;;;10313771;28;20071;-55
2021/10/03 09:55:04;;;;;;;5.70;4.47;;;;;;;;;;10309058;28;20519;-53
2021/10/03 10:00:03;;;;;;;5.68;4.45;;;;;;;;;;10309321;28;20110;-52
2021/10/03 10:05:01;;;;;;;9.65;5.05;;;;;;;;;;10311446;28;20068;-55
2021/10/03 10:10:01;;;;;;;6.10;4.65;;;;;;;;;;10316637;28;20091;-54
2021/10/03 10:15:01;;;;;;;11.32;5.18;;;;;;;;;;10316145;28;20076;-54
2021/10/03 10:19:59;;;;;;;6.10;4.22;;;;;;;;;;10316309;28;20072;-54
2021/10/03 10:24:59;;;;;;;8.93;5.72;;;;;;;;;;10316732;28;20501;-54
2021/10/03 10:29:59;;;;;;;6.90;4.22;;;;;;;;;;10316624;28;20048;-54
2021/10/03 10:35:15;;;;;;;10.52;5.07;;;;;;;;;;10315836;28;20395;-54
2021/10/03 10:40:26;;;;;;;12.77;6.18;;;;;;;;;;10306899;28;20101;-55
2021/10/03 10:45:40;;;;;;;10.88;4.10;;;;;;;;;;10316313;28;20088;-54
2021/10/03 10:50:40;;;;;;;6.47;4.68;;;;;;;;;;10315823;28;20051;-54
2021/10/03 10:55:39;;;;;;;6.18;4.00;;;;;;;;;;10315888;28;20041;-55
2021/10/03 11:00:54;;;;;;;7.63;4.30;;;;;;;;;;10315916;28;20060;-55
2021/10/03 11:05:53;;;;;;;9.95;6.00;;;;;;;;;;10316261;28;20092;-54
2021/10/03 11:11:10;;;;;;;6.40;3.40;;;;;;;;;;10315733;28;20417;-54
2021/10/03 11:16:21;;;;;;;9.00;4.00;;;;;;;;;;10318813;28;20091;-53
2021/10/03 11:21:23;;;;;;;8.18;3.85;;;;;;;;;;10323229;28;20043;-53
2021/10/03 11:26:23;;;;;;;7.57;4.13;;;;;;;;;;10321255;28;20528;-54
2021/10/03 11:31:40;;;;;;;12.40;4.13;;;;;;;;;;10322574;28;20060;-54
2021/10/03 11:36:48;;;;;;;6.32;5.25;;;;;;;;;;10322870;28;20095;-55
2021/10/03 11:41:47;;;;;;;6.32;3.67;;;;;;;;;;10322668;28;20052;-52
2021/10/03 11:46:55;;;;;;;9.40;3.97;;;;;;;;;;10321786;28;20461;-54
2021/10/03 11:51:54;;;;;;;17.17;5.82;;;;;;;;;;10322127;28;20406;-52
2021/10/03 11:56:53;;;;;;;10.75;4.93;;;;;;;;;;10322229;28;20421;-55
2021/10/03 12:01:51;;;;;;;15.45;5.28;;;;;;;;;;10321838;28;20051;-52
2021/10/03 12:06:51;;;;;;;5.47;3.20;;;;;;;;;;10321575;28;20453;-52
2021/10/03 12:11:49;;;;;;;6.15;3.55;;;;;;;;;;10321332;28;20511;-54
2021/10/03 12:16:52;;;;;;;9.90;4.03;;;;;;;;;;10320520;28;20071;-55
2021/10/03 12:22:04;;;;;;;7.68;3.83;;;;;;;;;;10321469;28;20048;-52
2021/10/03 12:27:02;;;;;;;10.82;6.57;;;;;;;;;;10320302;28;20088;-52
2021/10/03 12:32:10;;;;;;;7.03;4.60;;;;;;;;;;10320309;28;20064;-52
2021/10/03 12:37:11;;;;;;;15.18;10.00;;;;;;;;;;10320673;28;20040;-55
2021/10/03 12:42:11;;;;;;;9.98;5.13;;;;;;;;;;10320600;28;20075;-55
2021/10/03 12:47:10;;;;;;;5.10;4.60;;;;;;;;;;10320020;28;20091;-54
2021/10/03 12:52:11;;;;;;;9.75;3.47;;;;;;;;;;10319883;28;20064;-50
2021/10/03 12:57:09;;;;;;;12.15;7.57;;;;;;;;;;10319572;28;20083;-49
2021/10/03 13:02:08;;;;;;;7.40;4.72;;;;;;;;;;10319489;28;20450;-53
2021/10/03 13:07:10;;;;;;;7.97;6.47;;;;;;;;;;10319275;28;20528;-53
2021/10/03 13:12:08;;;;;;;11.60;6.00;;;;;;;;;;10319267;28;20079;-55
2021/10/03 13:17:07;;;;;;;9.68;5.85;;;;;;;;;;10319246;28;20048;-54
2021/10/03 13:22:05;;;;;;;11.18;4.60;;;;;;;;;;10318427;28;20206;-53
2021/10/03 13:27:05;;;;;;;6.05;4.57;;;;;;;;;;10318486;28;20084;-53
2021/10/03 13:32:04;;;;;;;6.47;4.63;;;;;;;;;;10318388;28;20071;-53
2021/10/03 13:37:02;;;;;;;5.30;3.70;;;;;;;;;;10317452;28;20048;-53
2021/10/03 13:42:01;;;;;;;11.50;3.50;;;;;;;;;;10317661;28;20469;-54
2021/10/03 13:47:00;;;;;;;12.63;3.88;;;;;;;;;;10317729;28;20075;-55
2021/10/03 13:51:59;;;;;;;9.35;3.88;;;;;;;;;;10317362;28;20072;-55
2021/10/03 13:56:57;;;;;;;6.18;5.13;;;;;;;;;;10316753;28;20386;-53
2021/10/03 14:01:55;;;;;;;14.30;6.97;;;;;;;;;;10317274;28;20958;-53
2021/10/03 14:06:55;;;;;;;10.35;4.05;;;;;;;;;;10316902;28;20080;-50
2021/10/03 14:11:53;;;;;;;8.05;4.32;;;;;;;;;;10316333;28;20099;-53
2021/10/03 14:16:52;;;;;;;5.35;3.72;;;;;;;;;;10317104;28;20045;-52
2021/10/03 14:21:50;;;;;;;5.78;4.60;;;;;;;;;;10316811;28;20044;-52
2021/10/03 14:26:50;;;;;;;11.23;5.35;;;;;;;;;;10315814;28;20083;-52
2021/10/03 14:31:48;;;;;;;14.50;6.20;;;;;;;;;;10316216;28;20056;-52
2021/10/03 14:36:46;;;;;;;14.15;4.65;;;;;;;;;;10316570;28;20044;-55
2021/10/03 14:41:44;;;;;;;9.48;6.35;;;;;;;;;;10316650;28;20048;-56
2021/10/03 14:46:44;;;;;;;12.13;7.32;;;;;;;;;;10316389;28;20086;-55
2021/10/03 14:51:42;;;;;;;16.70;12.63;;;;;;;;;;10323021;28;20060;-54
2021/10/03 14:56:41;;;;;;;21.13;12.23;;;;;;;;;;10324443;28;20087;-55
2021/10/03 15:01:39;;;;;;;18.23;8.95;;;;;;;;;;10324021;28;20048;-54
2021/10/03 15:06:39;;;;;;;15.43;11.75;;;;;;;;;;10322053;28;20052;-55
2021/10/03 15:11:37;;;;;;;23.00;15.20;;;;;;;;;;10323728;28;20264;-54
2021/10/03 15:16:36;;;;;;;32.05;18.52;;;;;;;;;;10323769;28;20080;-56
2021/10/03 15:21:34;;;;;;;24.60;15.43;;;;;;;;;;10323430;28;20040;-53
2021/10/03 15:26:34;;;;;;;16.95;15.10;;;;;;;;;;10323039;28;20080;-55
2021/10/03 15:31:32;;;;;;;19.98;12.88;;;;;;;;;;10322615;28;20505;-54
2021/10/03 15:36:30;;;;;;;26.48;14.77;;;;;;;;;;10322897;28;20045;-54
2021/10/03 15:41:29;;;;;;;19.17;10.65;;;;;;;;;;10322918;28;20048;-56
2021/10/03 15:46:28;;;;;;;19.65;9.52;;;;;;;;;;10322503;28;20059;-52
2021/10/03 15:51:29;;;;;;;20.55;10.27;;;;;;;;;;10322444;28;20084;-53
2021/10/03 15:56:27;;;;;;;15.27;8.05;;;;;;;;;;10322283;28;20060;-53
2021/10/03 16:01:25;;;;;;;21.58;9.13;;;;;;;;;;10321124;28;20413;-52
2021/10/03 16:06:25;;;;;;;18.38;12.65;;;;;;;;;;10321824;28;20040;-55
2021/10/03 16:11:23;;;;;;;23.63;12.15;;;;;;;;;;10321793;28;20080;-54
2021/10/03 16:16:22;;;;;;;19.67;12.93;;;;;;;;;;10321508;28;20043;-55
2021/10/03 16:21:20;;;;;;;22.75;10.73;;;;;;;;;;10321229;28;20048;-55
2021/10/03 16:26:19;;;;;;;16.40;11.65;;;;;;;;;;10321320;28;20099;-55
2021/10/03 16:31:18;;;;;;;18.88;13.15;;;;;;;;;;10320719;28;20091;-55
2021/10/03 16:36:16;;;;;;;19.60;11.40;;;;;;;;;;10320647;28;20497;-57
2021/10/03 16:41:14;;;;;;;34.15;23.02;;;;;;;;;;10320513;28;20469;-55
2021/10/03 16:46:14;;;;;;;24.80;14.20;;;;;;;;;;10320390;28;20056;-55
2021/10/03 16:51:12;;;;;;;16.38;9.45;;;;;;;;;;10319857;28;20072;-54
2021/10/03 16:56:11;;;;;;;18.25;9.40;;;;;;;;;;10319923;28;20040;-55
2021/10/03 17:01:09;;;;;;;13.05;8.93;;;;;;;;;;10319792;28;20421;-54
2021/10/03 17:06:09;;;;;;;19.23;8.90;;;;;;;;;;10319449;28;20059;-55
2021/10/03 17:11:07;;;;;;;19.33;9.48;;;;;;;;;;10319256;28;20083;-55
2021/10/03 17:16:06;;;;;;;19.58;11.80;;;;;;;;;;10319320;28;20566;-55
2021/10/03 17:21:04;;;;;;;28.67;15.30;;;;;;;;;;10318940;28;20406;-54
2021/10/03 17:26:04;;;;;;;17.45;9.43;;;;;;;;;;10318934;28;20083;-55
2021/10/03 17:31:02;;;;;;;13.98;8.02;;;;;;;;;;10317661;28;20091;-55
2021/10/03 17:36:00;;;;;;;14.93;6.97;;;;;;;;;;10317071;28;20060;-55
2021/10/03 17:40:59;;;;;;;12.15;7.55;;;;;;;;;;10317882;28;20044;-52
2021/10/03 17:46:01;;;;;;;10.20;6.75;;;;;;;;;;10317413;28;20052;-53
2021/10/03 17:50:59;;;;;;;10.77;7.82;;;;;;;;;;10317788;28;20091;-54
2021/10/03 17:55:58;;;;;;;17.30;7.18;;;;;;;;;;10317361;28;20079;-54
2021/10/03 18:00:56;;;;;;;13.07;5.97;;;;;;;;;;10316862;28;20094;-55
2021/10/03 18:05:56;;;;;;;16.27;6.55;;;;;;;;;;10317653;28;20041;-55
2021/10/03 18:10:54;;;;;;;10.32;6.07;;;;;;;;;;10316983;28;20462;-54
2021/10/03 18:15:52;;;;;;;9.52;5.15;;;;;;;;;;10316871;28;20075;-54
2021/10/03 18:20:51;;;;;;;9.63;5.85;;;;;;;;;;10316373;28;20045;-53
2021/10/03 18:25:50;;;;;;;7.70;6.13;;;;;;;;;;10316193;28;20475;-55
2021/10/03 18:30:48;;;;;;;7.88;6.47;;;;;;;;;;10316003;28;20084;-55
2021/10/03 18:35:47;;;;;;;9.40;6.07;;;;;;;;;;10316596;28;20105;-55
2021/10/03 18:40:45;;;;;;;9.45;6.07;;;;;;;;;;10316553;28;20485;-55
2021/10/03 18:45:45;;;;;;;10.13;5.43;;;;;;;;;;10316353;28;20496;-56
2021/10/03 18:50:43;;;;;;;11.10;6.03;;;;;;;;;;10316330;28;20076;-52
2021/10/03 18:55:41;;;;;;;10.20;5.65;;;;;;;;;;10316170;28;20048;-54
2021/10/03 19:00:40;;;;;;;7.35;5.57;;;;;;;;;;10316046;28;20071;-55
2021/10/03 19:05:39;;;;;;;9.10;5.05;;;;;;;;;;10316505;28;20076;-54
2021/10/03 19:10:37;;;;;;;10.70;4.72;;;;;;;;;;10315826;28;20469;-56
2021/10/03 19:15:36;;;;;;;9.18;4.53;;;;;;;;;;10315886;28;20668;-55
2021/10/03 19:20:34;;;;;;;9.05;4.25;;;;;;;;;;10315746;28;20076;-54
2021/10/03 19:25:34;;;;;;;7.47;3.45;;;;;;;;;;10315884;28;20533;-53
2021/10/03 19:30:32;;;;;;;5.72;4.03;;;;;;;;;;10315249;28;20064;-52
2021/10/03 19:35:31;;;;;;;8.75;3.83;;;;;;;;;;10316642;28;20048;-55
2021/10/03 19:40:29;;;;;;;7.80;4.43;;;;;;;;;;10320425;28;20079;-54
2021/10/03 19:45:29;;;;;;;8.63;3.97;;;;;;;;;;10322637;28;20083;-56
2021/10/03 19:50:27;;;;;;;7.40;4.53;;;;;;;;;;10322297;28;20099;-55
2021/10/03 19:55:25;;;;;;;7.07;4.90;;;;;;;;;;10311703;28;20036;-53
2021/10/03 20:00:24;;;;;;;6.65;5.50;;;;;;;;;;10297709;28;20478;-53
2021/10/03 20:05:23;;;;;;;6.38;4.13;;;;;;;;;;10299507;28;20053;-53
2021/10/03 20:10:22;;;;;;;6.03;4.30;;;;;;;;;;10291244;28;20072;-54
2021/10/03 20:15:20;;;;;;;8.43;4.07;;;;;;;;;;10295493;28;20072;-52
2021/10/03 20:20:18;;;;;;;5.00;3.75;;;;;;;;;;10300244;28;20463;-51
2021/10/03 20:25:19;;;;;;;8.52;4.10;;;;;;;;;;10299341;28;20067;-50
2021/10/03 20:30:17;;;;;;;7.05;3.95;;;;;;;;;;10294602;28;20053;-52
2021/10/03 20:35:15;;;;;;;5.95;3.47;;;;;;;;;;10296692;28;20041;-54
2021/10/03 20:40:14;;;;;;;6.25;3.95;;;;;;;;;;10299119;28;20033;-51
2021/10/03 20:45:15;;;;;;;7.28;3.63;;;;;;;;;;10279649;28;20056;-54
2021/10/03 20:50:15;;;;;;;9.63;3.30;;;;;;;;;;10277603;28;20421;-54
2021/10/03 20:55:14;;;;;;;7.10;3.78;;;;;;;;;;10279543;28;20076;-54
2021/10/03 21:00:15;;;;;;;5.15;3.40;;;;;;;;;;10278795;28;20053;-54
2021/10/03 21:05:13;;;;;;;10.10;3.70;;;;;;;;;;10278372;28;20041;-54
2021/10/03 21:10:13;;;;;;;4.82;3.65;;;;;;;;;;10277000;28;20076;-54
2021/10/03 21:15:11;;;;;;;14.00;4.30;;;;;;;;;;10278559;28;20056;-54
2021/10/03 21:20:15;;;;;;;10.98;4.00;;;;;;;;;;10277753;28;20068;-54
2021/10/03 21:25:14;;;;;;;5.78;4.05;;;;;;;;;;10278110;28;20081;-55
2021/10/03 21:30:13;;;;;;;11.45;4.05;;;;;;;;;;10278073;28;20084;-54
2021/10/03 21:35:17;;;;;;;10.77;3.95;;;;;;;;;;10277717;28;20083;-55
2021/10/03 21:40:17;;;;;;;6.32;4.43;;;;;;;;;;10277736;28;20077;-54
2021/10/03 21:45:15;;;;;;;7.00;4.22;;;;;;;;;;10277128;28;20076;-53
2021/10/03 21:50:15;;;;;;;6.32;4.18;;;;;;;;;;10276777;28;20081;-54
2021/10/03 21:55:14;;;;;;;7.32;4.63;;;;;;;;;;10277197;28;20349;-53
2021/10/03 22:00:14;;;;;;;5.40;4.10;;;;;;;;;;10275687;28;20044;-55
2021/10/03 22:05:12;;;;;;;7.05;3.83;;;;;;;;;;10276548;28;20072;-54
2021/10/03 22:10:11;;;;;;;8.40;4.22;;;;;;;;;;10276338;28;20076;-54
2021/10/03 22:15:10;;;;;;;5.90;4.15;;;;;;;;;;10276226;28;20402;-54
2021/10/03 22:20:09;;;;;;;9.45;4.32;;;;;;;;;;10276056;28;20083;-52
2021/10/03 22:25:09;;;;;;;7.93;3.80;;;;;;;;;;10275919;28;20091;-54
2021/10/03 22:30:08;;;;;;;7.30;3.95;;;;;;;;;;10275537;28;20076;-51
2021/10/03 22:35:08;;;;;;;5.57;4.45;;;;;;;;;;10276127;28;20057;-55
2021/10/03 22:40:08;;;;;;;9.32;4.43;;;;;;;;;;10276468;28;20076;-51
2021/10/03 22:45:08;;;;;;;11.52;4.68;;;;;;;;;;10275894;28;20060;-54
2021/10/03 22:50:09;;;;;;;8.38;4.32;;;;;;;;;;10274995;28;20447;-53
2021/10/03 22:55:09;;;;;;;5.22;4.20;;;;;;;;;;10276114;28;20057;-53
2021/10/03 23:00:09;;;;;;;8.80;4.38;;;;;;;;;;10275582;28;20502;-51
2021/10/03 23:05:09;;;;;;;5.30;4.03;;;;;;;;;;10274208;28;20045;-55
2021/10/03 23:10:08;;;;;;;7.68;4.90;;;;;;;;;;10276939;28;20106;-54
2021/10/03 23:15:07;;;;;;;7.72;4.82;;;;;;;;;;10282836;28;20052;-55
2021/10/03 23:20:06;;;;;;;10.07;4.47;;;;;;;;;;10283029;28;20072;-55
2021/10/03 23:25:07;;;;;;;6.78;4.78;;;;;;;;;;10282749;28;20045;-54
2021/10/03 23:30:07;;;;;;;6.25;5.38;;;;;;;;;;10282452;28;20080;-54
2021/10/03 23:35:07;;;;;;;6.95;4.53;;;;;;;;;;10282633;28;20486;-55
2021/10/03 23:40:09;;;;;;;6.75;3.90;;;;;;;;;;10282017;28;20414;-55
2021/10/03 23:45:08;;;;;;;8.25;4.57;;;;;;;;;;10281848;28;20553;-55
2021/10/03 23:50:07;;;;;;;10.65;4.55;;;;;;;;;;10281456;28;20107;-54
2021/10/03 23:55:07;;;;;;;5.50;4.40;;;;;;;;;;10281555;28;20045;-53
